Time;durP1;ratioP1;P1;durP2;ratioP2;P2;SDS_P1;SDS_P2;PMS_P1;PMS_P2;Temp;Humidity;BMP_temperature;BMP_pressure;BME280_temperature;BME280_humidity;BME280_pressure;Samples;Min_cycle;Max_cycle;Signal;HPM_P1;HPM_P2
2023/03/06 00:01:20;;;;;;;7.53;1.40;;;;;;;;;;4948146;28;20055;-73
2023/03/06 00:03:54;;;;;;;9.07;1.00;;;;;;;;;;4949982;29;20063;-73
2023/03/06 00:06:25;;;;;;;5.22;1.00;;;;;;;;;;4950423;29;20051;-74
2023/03/06 00:08:58;;;;;;;7.65;1.00;;;;;;;;;;4949633;29;20051;-73
2023/03/06 00:11:30;;;;;;;6.22;1.10;;;;;;;;;;4949735;29;20051;-73
2023/03/06 00:14:02;;;;;;;9.20;1.23;;;;;;;;;;4949025;28;20446;-73
2023/03/06 00:16:35;;;;;;;7.70;1.17;;;;;;;;;;4949274;29;20055;-73
2023/03/06 00:19:08;;;;;;;10.77;1.33;;;;;;;;;;4948808;28;20066;-73
2023/03/06 00:21:40;;;;;;;6.65;1.10;;;;;;;;;;4950119;29;20369;-73
2023/03/06 00:24:12;;;;;;;5.85;1.10;;;;;;;;;;4949146;29;20051;-74
2023/03/06 00:26:42;;;;;;;13.65;1.48;;;;;;;;;;4949620;29;20061;-72
2023/03/06 00:29:16;;;;;;;10.93;1.02;;;;;;;;;;4949198;28;20313;-74
2023/03/06 00:31:48;;;;;;;5.97;1.00;;;;;;;;;;4947815;29;20059;-73
2023/03/06 00:34:19;;;;;;;9.20;1.13;;;;;;;;;;4949553;29;20047;-74
2023/03/06 00:36:51;;;;;;;7.97;1.10;;;;;;;;;;4948999;29;20062;-73
2023/03/06 00:39:27;;;;;;;8.20;1.30;;;;;;;;;;4949805;29;20066;-74
2023/03/06 00:41:59;;;;;;;8.80;1.33;;;;;;;;;;4949597;29;20051;-74
2023/03/06 00:44:32;;;;;;;4.65;0.88;;;;;;;;;;4949292;29;20043;-74
2023/03/06 00:47:03;;;;;;;9.15;1.00;;;;;;;;;;4949242;29;20062;-73
2023/03/06 00:49:35;;;;;;;14.32;1.40;;;;;;;;;;4949472;29;20050;-73
2023/03/06 00:52:07;;;;;;;8.70;1.77;;;;;;;;;;4949386;28;20063;-74
2023/03/06 00:54:39;;;;;;;8.05;1.73;;;;;;;;;;4949469;28;20436;-74
2023/03/06 00:57:11;;;;;;;4.78;0.90;;;;;;;;;;4946808;29;20377;-74
2023/03/06 00:59:47;;;;;;;8.27;1.40;;;;;;;;;;4949142;29;20051;-74
2023/03/06 01:02:24;;;;;;;15.45;2.20;;;;;;;;;;4946748;29;20549;-73
2023/03/06 01:05:03;;;;;;;8.32;1.50;;;;;;;;;;4947767;28;20066;-74
2023/03/06 01:07:35;;;;;;;10.80;1.77;;;;;;;;;;4949005;29;20047;-75
2023/03/06 01:10:08;;;;;;;9.98;1.40;;;;;;;;;;4948183;29;20043;-73
2023/03/06 01:12:39;;;;;;;4.88;1.00;;;;;;;;;;4948227;29;20055;-73
2023/03/06 01:15:12;;;;;;;9.75;1.50;;;;;;;;;;4948460;29;20070;-74
2023/03/06 01:17:42;;;;;;;6.25;1.05;;;;;;;;;;4947453;29;20063;-74
2023/03/06 01:20:16;;;;;;;8.63;1.30;;;;;;;;;;4946174;29;20055;-74
2023/03/06 01:22:47;;;;;;;5.82;1.20;;;;;;;;;;4927458;29;20798;-74
2023/03/06 01:25:17;;;;;;;11.63;1.48;;;;;;;;;;4929197;29;20063;-72
2023/03/06 01:27:47;;;;;;;11.55;1.13;;;;;;;;;;4928091;29;20051;-72
2023/03/06 01:30:18;;;;;;;8.60;1.35;;;;;;;;;;4929244;29;20051;-72
2023/03/06 01:32:48;;;;;;;10.15;1.63;;;;;;;;;;4928151;29;20323;-73
2023/03/06 01:35:18;;;;;;;11.02;1.70;;;;;;;;;;4929105;29;20043;-72
2023/03/06 01:37:48;;;;;;;6.03;1.20;;;;;;;;;;4929359;29;20051;-74
2023/03/06 01:40:19;;;;;;;11.63;1.35;;;;;;;;;;4929588;29;20502;-73
2023/03/06 01:42:49;;;;;;;7.10;1.20;;;;;;;;;;4929234;29;20625;-73
2023/03/06 01:45:23;;;;;;;8.18;1.77;;;;;;;;;;4928046;29;20511;-72
2023/03/06 01:47:54;;;;;;;7.32;1.15;;;;;;;;;;4929447;29;20051;-71
2023/03/06 01:50:25;;;;;;;8.43;1.17;;;;;;;;;;4929504;29;20510;-72
2023/03/06 01:52:58;;;;;;;10.65;1.63;;;;;;;;;;4929243;29;20054;-73
2023/03/06 01:55:33;;;;;;;7.15;1.52;;;;;;;;;;4927736;29;20056;-73
2023/03/06 01:58:07;;;;;;;7.85;0.95;;;;;;;;;;4927825;29;20086;-73
2023/03/06 02:00:39;;;;;;;7.90;1.25;;;;;;;;;;4927253;29;20051;-73
2023/03/06 02:03:14;;;;;;;8.63;1.52;;;;;;;;;;4928734;29;20427;-72
2023/03/06 02:05:45;;;;;;;10.88;1.55;;;;;;;;;;4929385;29;20052;-72
2023/03/06 02:08:19;;;;;;;20.02;1.58;;;;;;;;;;4929270;29;20048;-73
2023/03/06 02:11:08;;;;;;;9.63;1.10;;;;;;;;;;4929063;29;20054;-73
2023/03/06 02:13:39;;;;;;;9.20;1.20;;;;;;;;;;4928805;29;20048;-73
2023/03/06 02:16:11;;;;;;;11.07;1.40;;;;;;;;;;4929127;29;20476;-74
2023/03/06 02:18:43;;;;;;;7.40;1.17;;;;;;;;;;4927455;29;20056;-74
2023/03/06 02:21:23;;;;;;;8.00;1.55;;;;;;;;;;4928529;29;20435;-74
2023/03/06 02:24:22;;;;;;;3.17;1.10;;;;;;;;;;4931193;29;20047;-74
2023/03/06 02:26:55;;;;;;;11.68;1.48;;;;;;;;;;4930736;29;20051;-74
2023/03/06 02:29:29;;;;;;;9.80;1.40;;;;;;;;;;4931783;29;20048;-75
2023/03/06 02:32:04;;;;;;;7.15;1.10;;;;;;;;;;4930758;29;20048;-74
2023/03/06 02:34:37;;;;;;;9.65;1.52;;;;;;;;;;4943359;29;20048;-74
2023/03/06 02:37:10;;;;;;;13.25;1.90;;;;;;;;;;4931800;29;20503;-75
2023/03/06 02:39:46;;;;;;;9.07;1.85;;;;;;;;;;4929999;29;20418;-74
2023/03/06 02:42:20;;;;;;;15.90;2.10;;;;;;;;;;4944300;29;20063;-74
2023/03/06 02:44:52;;;;;;;11.15;1.20;;;;;;;;;;4929233;29;20059;-73
2023/03/06 02:47:23;;;;;;;10.68;1.30;;;;;;;;;;4931405;29;20629;-74
2023/03/06 02:49:54;;;;;;;10.25;1.25;;;;;;;;;;4929306;29;20374;-74
2023/03/06 02:52:25;;;;;;;6.95;1.10;;;;;;;;;;4930825;29;20526;-74
2023/03/06 02:54:56;;;;;;;13.10;1.70;;;;;;;;;;4930696;29;20062;-75
2023/03/06 02:57:26;;;;;;;9.35;1.50;;;;;;;;;;4931533;29;20056;-74
2023/03/06 02:59:59;;;;;;;10.07;1.63;;;;;;;;;;4930435;29;20056;-74
2023/03/06 03:02:30;;;;;;;12.98;1.42;;;;;;;;;;4927918;29;20522;-74
2023/03/06 03:05:00;;;;;;;14.98;1.45;;;;;;;;;;4930425;29;20051;-74
2023/03/06 03:07:31;;;;;;;12.48;1.73;;;;;;;;;;4929569;29;20451;-75
2023/03/06 03:10:02;;;;;;;12.45;2.50;;;;;;;;;;4929739;29;20408;-74
2023/03/06 03:12:35;;;;;;;13.73;1.98;;;;;;;;;;4930212;29;20066;-74
2023/03/06 03:15:07;;;;;;;16.40;2.20;;;;;;;;;;4928676;29;20059;-73
2023/03/06 03:17:40;;;;;;;14.77;2.17;;;;;;;;;;4929078;29;20415;-74
2023/03/06 03:20:13;;;;;;;12.82;2.20;;;;;;;;;;4931648;29;20051;-74
2023/03/06 03:22:51;;;;;;;12.27;1.80;;;;;;;;;;4931298;29;20063;-75
2023/03/06 03:25:25;;;;;;;13.18;2.55;;;;;;;;;;4931448;29;20051;-74
2023/03/06 03:27:57;;;;;;;16.08;1.77;;;;;;;;;;4929707;29;20052;-74
2023/03/06 03:30:28;;;;;;;14.32;2.42;;;;;;;;;;4929313;29;20051;-75
2023/03/06 03:32:59;;;;;;;10.25;2.05;;;;;;;;;;4929612;29;20059;-75
2023/03/06 03:35:30;;;;;;;11.63;1.67;;;;;;;;;;4930603;29;20502;-74
2023/03/06 03:38:00;;;;;;;15.43;1.90;;;;;;;;;;4929028;29;20066;-74
2023/03/06 03:40:32;;;;;;;11.77;1.95;;;;;;;;;;4930278;29;20066;-75
2023/03/06 03:43:03;;;;;;;14.00;2.10;;;;;;;;;;4928936;29;20075;-74
2023/03/06 03:45:33;;;;;;;17.83;2.72;;;;;;;;;;4929990;29;20479;-74
2023/03/06 03:48:05;;;;;;;9.07;1.73;;;;;;;;;;4929649;29;20059;-74
2023/03/06 03:50:35;;;;;;;16.45;2.28;;;;;;;;;;4929606;29;20051;-74
2023/03/06 03:53:06;;;;;;;11.70;2.22;;;;;;;;;;4929309;29;20047;-74
2023/03/06 03:55:38;;;;;;;15.23;2.40;;;;;;;;;;4929285;29;20040;-74
2023/03/06 03:58:08;;;;;;;11.57;2.17;;;;;;;;;;4928891;29;20122;-75
2023/03/06 04:00:38;;;;;;;16.30;1.80;;;;;;;;;;4929683;29;20055;-75
2023/03/06 04:03:13;;;;;;;14.27;2.35;;;;;;;;;;4929081;29;20750;-74
2023/03/06 04:05:46;;;;;;;14.98;2.35;;;;;;;;;;4929392;29;20395;-74
2023/03/06 04:08:17;;;;;;;11.05;1.95;;;;;;;;;;4930029;29;20537;-75
2023/03/06 04:10:50;;;;;;;11.23;2.03;;;;;;;;;;4928982;29;20443;-75
2023/03/06 04:13:23;;;;;;;19.33;2.40;;;;;;;;;;4928820;29;20063;-74
2023/03/06 04:15:55;;;;;;;20.48;2.53;;;;;;;;;;4928671;29;20067;-74
2023/03/06 04:18:28;;;;;;;11.15;1.85;;;;;;;;;;4929247;29;20082;-74
2023/03/06 04:21:04;;;;;;;12.75;1.92;;;;;;;;;;4929404;29;20052;-75
2023/03/06 04:23:34;;;;;;;12.60;2.13;;;;;;;;;;4929555;29;20070;-74
2023/03/06 04:26:07;;;;;;;11.70;2.05;;;;;;;;;;4928794;29;20044;-74
2023/03/06 04:28:38;;;;;;;18.27;3.83;;;;;;;;;;4930573;29;20412;-74
2023/03/06 04:31:11;;;;;;;16.27;2.67;;;;;;;;;;4928618;29;20400;-74
2023/03/06 04:33:41;;;;;;;14.10;2.08;;;;;;;;;;4928940;29;20056;-75
2023/03/06 04:36:27;;;;;;;10.70;2.10;;;;;;;;;;4929320;29;20048;-74
2023/03/06 04:39:02;;;;;;;9.30;1.83;;;;;;;;;;4928696;29;20055;-75
2023/03/06 04:41:34;;;;;;;12.13;2.08;;;;;;;;;;4928485;29;20048;-75
2023/03/06 04:44:05;;;;;;;13.07;2.17;;;;;;;;;;4930028;29;20056;-74
2023/03/06 04:46:36;;;;;;;14.10;1.98;;;;;;;;;;4928104;29;20515;-74
2023/03/06 04:49:07;;;;;;;14.63;2.47;;;;;;;;;;4930197;29;20051;-75
2023/03/06 04:51:37;;;;;;;11.93;2.00;;;;;;;;;;4929014;29;20055;-75
2023/03/06 04:54:07;;;;;;;15.13;2.20;;;;;;;;;;4930081;29;20055;-74
2023/03/06 04:56:37;;;;;;;8.25;2.10;;;;;;;;;;4930572;29;20054;-74
2023/03/06 04:59:09;;;;;;;14.13;2.05;;;;;;;;;;4929510;29;20059;-75
2023/03/06 05:01:39;;;;;;;14.55;1.88;;;;;;;;;;4928930;29;20476;-75
2023/03/06 05:04:09;;;;;;;12.35;2.25;;;;;;;;;;4929456;29;20058;-75
2023/03/06 05:06:39;;;;;;;10.63;1.85;;;;;;;;;;4929791;29;20047;-75
2023/03/06 05:09:10;;;;;;;19.85;2.42;;;;;;;;;;4929540;29;20056;-75
2023/03/06 05:11:40;;;;;;;14.13;1.60;;;;;;;;;;4928396;29;20052;-75
2023/03/06 05:14:10;;;;;;;13.73;1.75;;;;;;;;;;4930103;29;20043;-75
2023/03/06 05:16:40;;;;;;;12.82;1.90;;;;;;;;;;4928130;29;20059;-75
2023/03/06 05:19:10;;;;;;;8.98;1.60;;;;;;;;;;4929565;29;20056;-75
2023/03/06 05:21:40;;;;;;;9.10;1.70;;;;;;;;;;4930195;29;20048;-75
2023/03/06 05:24:11;;;;;;;7.57;1.80;;;;;;;;;;4929347;29;20058;-75
2023/03/06 05:26:41;;;;;;;10.63;1.73;;;;;;;;;;4929953;29;20055;-75
2023/03/06 05:29:11;;;;;;;11.23;1.80;;;;;;;;;;4929968;29;20063;-76
2023/03/06 05:31:42;;;;;;;10.77;1.80;;;;;;;;;;4927828;29;20082;-75
2023/03/06 05:34:17;;;;;;;12.70;1.92;;;;;;;;;;4929498;29;20556;-75
2023/03/06 05:36:47;;;;;;;14.35;1.90;;;;;;;;;;4929487;29;20063;-75
2023/03/06 05:39:17;;;;;;;11.50;1.67;;;;;;;;;;4929433;29;20879;-74
2023/03/06 05:41:47;;;;;;;9.63;1.50;;;;;;;;;;4929328;29;20056;-75
2023/03/06 05:44:18;;;;;;;10.45;1.75;;;;;;;;;;4930513;29;20406;-75
2023/03/06 05:46:49;;;;;;;12.02;2.33;;;;;;;;;;4929460;29;20070;-75
2023/03/06 05:49:20;;;;;;;12.48;1.73;;;;;;;;;;4928654;29;20055;-75
2023/03/06 05:51:49;;;;;;;11.15;1.65;;;;;;;;;;4929218;29;20047;-74
2023/03/06 05:54:20;;;;;;;7.68;1.52;;;;;;;;;;4929438;29;20047;-75
2023/03/06 05:56:50;;;;;;;7.35;1.40;;;;;;;;;;4930018;29;20526;-75
2023/03/06 05:59:21;;;;;;;8.25;1.40;;;;;;;;;;4933282;29;20507;-75
2023/03/06 06:01:51;;;;;;;7.43;1.58;;;;;;;;;;4933321;29;20402;-75
2023/03/06 06:04:23;;;;;;;8.40;1.33;;;;;;;;;;4933233;29;20070;-75
2023/03/06 06:07:00;;;;;;;10.13;1.80;;;;;;;;;;4933029;29;20043;-75
2023/03/06 06:09:31;;;;;;;9.70;1.50;;;;;;;;;;4933465;29;20771;-75
2023/03/06 06:12:02;;;;;;;10.85;1.20;;;;;;;;;;4932843;29;20051;-75
2023/03/06 06:14:34;;;;;;;9.93;1.30;;;;;;;;;;4933166;29;20043;-75
2023/03/06 06:17:04;;;;;;;6.18;1.23;;;;;;;;;;4932775;29;20067;-76
2023/03/06 06:19:35;;;;;;;11.35;1.13;;;;;;;;;;4932826;29;20051;-74
2023/03/06 06:22:05;;;;;;;6.43;1.27;;;;;;;;;;4931490;29;20063;-75
2023/03/06 06:24:35;;;;;;;8.93;1.30;;;;;;;;;;4932076;29;20052;-75
2023/03/06 06:27:06;;;;;;;8.43;1.30;;;;;;;;;;4932689;29;20430;-75
2023/03/06 06:29:36;;;;;;;14.55;1.58;;;;;;;;;;4932429;29;20128;-74
2023/03/06 06:32:07;;;;;;;11.75;1.08;;;;;;;;;;4932267;29;20503;-75
2023/03/06 06:34:38;;;;;;;4.72;1.13;;;;;;;;;;4932778;29;20054;-75
2023/03/06 06:37:08;;;;;;;10.18;1.15;;;;;;;;;;4931108;29;20058;-75
2023/03/06 06:39:39;;;;;;;6.18;1.00;;;;;;;;;;4932530;29;20554;-75
2023/03/06 06:42:11;;;;;;;10.70;1.38;;;;;;;;;;4931666;29;20056;-75
2023/03/06 06:45:04;;;;;;;9.43;1.10;;;;;;;;;;4932255;29;20059;-75
2023/03/06 06:47:35;;;;;;;9.95;1.40;;;;;;;;;;4932198;29;20047;-75
2023/03/06 06:50:12;;;;;;;9.80;1.35;;;;;;;;;;4932864;29;20521;-75
2023/03/06 06:52:42;;;;;;;6.85;1.05;;;;;;;;;;4932262;29;20054;-75
2023/03/06 06:55:13;;;;;;;5.70;1.00;;;;;;;;;;4932292;29;20529;-75
2023/03/06 06:57:44;;;;;;;5.75;1.08;;;;;;;;;;4931872;29;20098;-75
2023/03/06 07:00:15;;;;;;;6.60;1.10;;;;;;;;;;4932020;29;20044;-75
2023/03/06 07:02:50;;;;;;;15.55;1.95;;;;;;;;;;4931962;29;20056;-75
2023/03/06 07:05:20;;;;;;;6.55;1.05;;;;;;;;;;4932340;29;20051;-75
2023/03/06 07:07:50;;;;;;;6.88;1.20;;;;;;;;;;4932313;29;20059;-74
2023/03/06 07:10:21;;;;;;;12.18;1.70;;;;;;;;;;4931091;29;20040;-74
2023/03/06 07:12:52;;;;;;;4.85;0.93;;;;;;;;;;4932180;29;20043;-73
2023/03/06 07:15:25;;;;;;;6.97;1.40;;;;;;;;;;4931939;29;20071;-74
2023/03/06 07:17:56;;;;;;;7.40;1.13;;;;;;;;;;4931769;29;20510;-76
2023/03/06 07:20:25;;;;;;;5.78;1.40;;;;;;;;;;4931635;29;20047;-74
2023/03/06 07:22:56;;;;;;;6.05;1.20;;;;;;;;;;4931827;29;20052;-75
2023/03/06 07:25:28;;;;;;;6.70;1.35;;;;;;;;;;4931788;29;20499;-74
2023/03/06 07:27:59;;;;;;;5.82;1.20;;;;;;;;;;4931778;29;20059;-75
2023/03/06 07:30:28;;;;;;;7.75;1.20;;;;;;;;;;4931446;29;20059;-73
2023/03/06 07:33:00;;;;;;;10.15;1.63;;;;;;;;;;4931599;29;20088;-74
2023/03/06 07:35:31;;;;;;;4.47;1.13;;;;;;;;;;4931081;29;20071;-74
2023/03/06 07:38:01;;;;;;;7.35;1.40;;;;;;;;;;4931698;29;20048;-73
2023/03/06 07:40:31;;;;;;;5.50;1.30;;;;;;;;;;4931455;29;20411;-74
2023/03/06 07:43:01;;;;;;;9.07;1.30;;;;;;;;;;4931774;29;20052;-73
2023/03/06 07:46:00;;;;;;;6.53;1.10;;;;;;;;;;4930027;29;20067;-73
2023/03/06 07:48:32;;;;;;;8.60;1.00;;;;;;;;;;4931813;29;20047;-73
2023/03/06 07:51:07;;;;;;;6.55;1.27;;;;;;;;;;4931461;29;20052;-74
2023/03/06 07:53:37;;;;;;;7.75;1.50;;;;;;;;;;4931505;29;20419;-73
2023/03/06 07:56:09;;;;;;;9.43;1.23;;;;;;;;;;4931119;29;20499;-74
2023/03/06 07:58:43;;;;;;;8.02;1.10;;;;;;;;;;4930093;29;20062;-73
2023/03/06 08:01:17;;;;;;;7.97;0.90;;;;;;;;;;4931439;29;20531;-73
2023/03/06 08:03:48;;;;;;;7.25;1.27;;;;;;;;;;4930598;29;20062;-74
2023/03/06 08:06:24;;;;;;;4.15;1.15;;;;;;;;;;4930713;29;20400;-73
2023/03/06 08:08:56;;;;;;;5.07;1.27;;;;;;;;;;4930912;29;20051;-74
2023/03/06 08:11:29;;;;;;;4.38;1.65;;;;;;;;;;4931459;29;20055;-73
2023/03/06 08:13:59;;;;;;;4.80;0.90;;;;;;;;;;4930806;29;20047;-74
2023/03/06 08:16:30;;;;;;;7.97;1.00;;;;;;;;;;4931032;29;20052;-74
2023/03/06 08:19:00;;;;;;;4.20;1.00;;;;;;;;;;4930727;29;20051;-73
2023/03/06 08:21:30;;;;;;;3.35;1.02;;;;;;;;;;4929354;29;20388;-73
2023/03/06 08:24:00;;;;;;;5.38;1.25;;;;;;;;;;4931274;29;20050;-74
2023/03/06 08:26:31;;;;;;;2.20;0.65;;;;;;;;;;4929510;29;20052;-74
2023/03/06 08:29:02;;;;;;;5.25;0.75;;;;;;;;;;4930403;29;20044;-73
2023/03/06 08:31:41;;;;;;;5.65;0.98;;;;;;;;;;4930743;29;20059;-72
2023/03/06 08:34:16;;;;;;;4.82;1.10;;;;;;;;;;4933730;29;20051;-73
2023/03/06 08:36:46;;;;;;;6.38;1.30;;;;;;;;;;4931514;29;20399;-74
2023/03/06 08:39:16;;;;;;;2.03;1.20;;;;;;;;;;4933318;29;20051;-73
2023/03/06 08:41:47;;;;;;;7.28;0.77;;;;;;;;;;4930933;29;20401;-74
2023/03/06 08:44:17;;;;;;;3.33;1.23;;;;;;;;;;4931158;29;20043;-74
2023/03/06 08:46:47;;;;;;;4.47;1.17;;;;;;;;;;4931274;29;20067;-74
2023/03/06 08:49:17;;;;;;;5.70;0.77;;;;;;;;;;4930718;29;20056;-73
2023/03/06 08:51:47;;;;;;;2.47;0.88;;;;;;;;;;4930676;29;20055;-74
2023/03/06 08:54:19;;;;;;;6.72;1.50;;;;;;;;;;4931491;29;20419;-74
2023/03/06 08:56:50;;;;;;;4.70;1.10;;;;;;;;;;4931103;29;20055;-73
2023/03/06 08:59:20;;;;;;;4.32;0.80;;;;;;;;;;4931053;29;20047;-74
2023/03/06 09:01:50;;;;;;;2.85;0.95;;;;;;;;;;4930562;29;20056;-75
2023/03/06 09:04:22;;;;;;;4.07;0.93;;;;;;;;;;4931049;29;20059;-74
2023/03/06 09:06:53;;;;;;;5.95;1.30;;;;;;;;;;4930986;29;20051;-75
2023/03/06 09:09:24;;;;;;;3.63;0.90;;;;;;;;;;4929250;29;20534;-73
2023/03/06 09:11:55;;;;;;;3.95;0.80;;;;;;;;;;4932859;29;20609;-75
2023/03/06 09:14:25;;;;;;;1.42;0.70;;;;;;;;;;4932115;29;20507;-74
2023/03/06 09:16:56;;;;;;;9.80;0.70;;;;;;;;;;4930440;29;20058;-74
2023/03/06 09:19:28;;;;;;;10.13;0.98;;;;;;;;;;4931325;29;20052;-79
2023/03/06 09:21:59;;;;;;;5.45;1.13;;;;;;;;;;4932681;29;20415;-75
2023/03/06 09:24:29;;;;;;;7.63;1.42;;;;;;;;;;4931940;29;20050;-75
2023/03/06 09:27:01;;;;;;;5.95;0.90;;;;;;;;;;4930795;29;20066;-76
2023/03/06 09:29:32;;;;;;;7.65;1.08;;;;;;;;;;4934744;29;20048;-75
2023/03/06 09:32:03;;;;;;;6.18;1.20;;;;;;;;;;4933446;29;20775;-75
2023/03/06 09:34:33;;;;;;;5.55;1.15;;;;;;;;;;4931707;29;20054;-76
2023/03/06 09:37:03;;;;;;;5.40;0.95;;;;;;;;;;4929960;29;20056;-76
2023/03/06 09:39:34;;;;;;;3.35;1.05;;;;;;;;;;4932238;29;20059;-77
2023/03/06 09:42:13;;;;;;;1.77;1.00;;;;;;;;;;4934120;29;20051;-76
2023/03/06 09:44:51;;;;;;;4.90;1.10;;;;;;;;;;4931109;29;20051;-75
2023/03/06 09:47:46;;;;;;;4.85;0.80;;;;;;;;;;4932426;29;20056;-75
2023/03/06 09:50:26;;;;;;;5.47;0.90;;;;;;;;;;4932757;29;20450;-74
2023/03/06 09:53:16;;;;;;;3.08;0.75;;;;;;;;;;4931194;29;20083;-76
2023/03/06 09:55:55;;;;;;;6.47;1.08;;;;;;;;;;4932067;29;20052;-76
2023/03/06 09:58:28;;;;;;;8.65;0.95;;;;;;;;;;4929537;29;20410;-75
2023/03/06 10:01:22;;;;;;;3.47;1.88;;;;;;;;;;4930059;29;20048;-75
2023/03/06 10:03:58;;;;;;;3.67;0.63;;;;;;;;;;4931107;29;20063;-76
2023/03/06 10:06:33;;;;;;;3.90;1.10;;;;;;;;;;4929513;29;20098;-74
2023/03/06 10:09:12;;;;;;;2.35;0.80;;;;;;;;;;4929959;29;20059;-78
2023/03/06 10:11:45;;;;;;;4.57;0.57;;;;;;;;;;4913119;29;20056;-74
2023/03/06 10:14:34;;;;;;;0.40;0.40;;;;;;;;;;4930449;29;20401;-75
2023/03/06 10:17:13;;;;;;;1.13;0.60;;;;;;;;;;4931009;29;20048;-74
2023/03/06 10:19:46;;;;;;;2.83;0.80;;;;;;;;;;4928373;29;20511;-74
2023/03/06 10:22:23;;;;;;;3.22;0.70;;;;;;;;;;4926910;29;20811;-78
2023/03/06 10:24:55;;;;;;;4.20;1.00;;;;;;;;;;4928197;29;20047;-74
2023/03/06 10:27:44;;;;;;;8.38;1.25;;;;;;;;;;4929551;29;20047;-74
2023/03/06 10:30:45;;;;;;;3.75;0.60;;;;;;;;;;4930151;29;20052;-74
2023/03/06 10:46:29;;;;;;;13.57;1.77;;;;;;;;;;5106625;27;20943;-80
2023/03/06 10:49:04;;;;;;;10.27;1.55;;;;;;;;;;5104229;28;20040;-74
2023/03/06 10:51:35;;;;;;;11.23;2.10;;;;;;;;;;5104021;28;20044;-73
2023/03/06 10:54:13;;;;;;;8.13;1.63;;;;;;;;;;5104158;28;20051;-73
2023/03/06 10:56:45;;;;;;;14.80;1.63;;;;;;;;;;5103817;28;20050;-75
2023/03/06 10:59:32;;;;;;;14.52;2.20;;;;;;;;;;5103839;28;20050;-76
2023/03/06 11:02:28;;;;;;;8.65;1.80;;;;;;;;;;5103470;28;20059;-74
2023/03/06 11:05:02;;;;;;;8.23;1.65;;;;;;;;;;5103924;28;20059;-74
2023/03/06 11:07:34;;;;;;;7.38;1.30;;;;;;;;;;5103836;28;20055;-75
2023/03/06 11:10:19;;;;;;;7.65;1.50;;;;;;;;;;5103680;28;20047;-75
2023/03/06 11:13:01;;;;;;;12.98;1.67;;;;;;;;;;5102234;28;20040;-74
2023/03/06 11:15:31;;;;;;;9.00;1.40;;;;;;;;;;5102621;28;20051;-75
2023/03/06 11:18:09;;;;;;;11.60;2.00;;;;;;;;;;5103259;28;20040;-76
2023/03/06 11:20:50;;;;;;;12.02;1.75;;;;;;;;;;5103353;28;20055;-75
2023/03/06 11:23:39;;;;;;;10.05;1.50;;;;;;;;;;5103486;28;20505;-76
2023/03/06 11:26:23;;;;;;;12.80;1.20;;;;;;;;;;5103483;28;20406;-74
2023/03/06 11:29:16;;;;;;;10.43;1.55;;;;;;;;;;5102945;28;20040;-76
2023/03/06 11:32:11;;;;;;;5.85;1.35;;;;;;;;;;5103047;28;20066;-74
2023/03/06 11:34:47;;;;;;;11.25;1.48;;;;;;;;;;5103093;28;20051;-75
2023/03/06 11:37:48;;;;;;;9.13;1.50;;;;;;;;;;5103093;28;20062;-74
2023/03/06 11:40:23;;;;;;;7.68;1.50;;;;;;;;;;5101711;28;20048;-74
2023/03/06 11:43:23;;;;;;;3.45;1.30;;;;;;;;;;5102844;28;20505;-78
2023/03/06 11:46:03;;;;;;;5.55;0.80;;;;;;;;;;5097394;28;20058;-74
2023/03/06 11:48:41;;;;;;;1.38;1.00;;;;;;;;;;5089421;28;20044;-75
2023/03/06 11:51:20;;;;;;;1.10;0.63;;;;;;;;;;5089516;28;20040;-74
2023/03/06 11:53:52;;;;;;;0.60;0.60;;;;;;;;;;5089131;28;20048;-75
2023/03/06 11:56:27;;;;;;;1.25;0.70;;;;;;;;;;5088777;28;20083;-75
2023/03/06 11:59:11;;;;;;;2.35;0.80;;;;;;;;;;5089312;28;20538;-74
2023/03/06 12:02:05;;;;;;;0.82;0.82;;;;;;;;;;5088100;28;20048;-75
2023/03/06 12:04:51;;;;;;;;;;;;;;;;;;5089269;28;20048;-74
2023/03/06 12:07:25;;;;;;;1.73;1.63;;;;;;;;;;5089200;28;19931;-77
2023/03/06 12:10:26;;;;;;;1.80;1.50;;;;;;;;;;5089276;28;20044;-75
2023/03/06 12:13:18;;;;;;;1.63;1.52;;;;;;;;;;5088850;28;20043;-75
2023/03/06 12:16:10;;;;;;;2.70;1.10;;;;;;;;;;5089168;28;20486;-75
2023/03/06 12:18:40;;;;;;;2.05;1.25;;;;;;;;;;5088855;28;20036;-73
2023/03/06 12:21:42;;;;;;;1.40;1.27;;;;;;;;;;5088257;28;20048;-74
2023/03/06 12:24:34;;;;;;;2.22;1.30;;;;;;;;;;5087553;28;20067;-75
2023/03/06 12:27:24;;;;;;;3.53;1.25;;;;;;;;;;5087782;28;20048;-75
2023/03/06 12:30:13;;;;;;;1.73;1.02;;;;;;;;;;5088570;28;20044;-75
2023/03/06 12:32:59;;;;;;;2.05;0.88;;;;;;;;;;5088170;28;20048;-76
2023/03/06 12:35:53;;;;;;;1.98;1.15;;;;;;;;;;5088156;28;20059;-75
2023/03/06 12:38:32;;;;;;;;;;;;;;;;;;5088937;28;20526;-75
2023/03/06 12:41:20;;;;;;;0.98;0.80;;;;;;;;;;5088023;28;19924;-74
2023/03/06 12:44:08;;;;;;;1.77;0.70;;;;;;;;;;5086502;28;20058;-75
2023/03/06 12:46:48;;;;;;;3.50;0.80;;;;;;;;;;5088513;28;20059;-74
2023/03/06 12:49:27;;;;;;;1.35;1.08;;;;;;;;;;5088491;28;20047;-75
2023/03/06 12:52:03;;;;;;;0.38;0.30;;;;;;;;;;5088853;28;20405;-75
2023/03/06 12:54:37;;;;;;;0.50;0.50;;;;;;;;;;5104426;28;20052;-76
2023/03/06 12:57:11;;;;;;;1.13;0.80;;;;;;;;;;5107481;28;20043;-75
2023/03/06 12:59:47;;;;;;;0.70;0.60;;;;;;;;;;5108055;28;21134;-76
2023/03/06 13:02:52;;;;;;;0.88;0.65;;;;;;;;;;5108618;28;20051;-76
2023/03/06 13:05:37;;;;;;;2.15;0.65;;;;;;;;;;5108077;28;20050;-75
2023/03/06 13:08:10;;;;;;;7.72;1.40;;;;;;;;;;5108168;28;20048;-76
2023/03/06 13:10:46;;;;;;;1.88;0.90;;;;;;;;;;5107963;28;20047;-75
2023/03/06 13:13:42;;;;;;;2.53;0.60;;;;;;;;;;5107646;28;20059;-76
2023/03/06 13:16:21;;;;;;;0.95;0.85;;;;;;;;;;5108138;28;20505;-74
2023/03/06 13:19:23;;;;;;;2.95;2.20;;;;;;;;;;5108165;28;20043;-77
2023/03/06 13:21:57;;;;;;;1.27;0.82;;;;;;;;;;5107844;28;20047;-75
2023/03/06 13:24:36;;;;;;;0.98;0.60;;;;;;;;;;5108135;28;20421;-74
2023/03/06 13:27:11;;;;;;;1.02;0.93;;;;;;;;;;5107287;28;20047;-75
2023/03/06 13:30:12;;;;;;;0.80;0.80;;;;;;;;;;5107497;28;20076;-76
2023/03/06 13:32:42;;;;;;;1.38;0.70;;;;;;;;;;5107612;28;20047;-75
2023/03/06 13:35:33;;;;;;;1.63;0.60;;;;;;;;;;5107469;28;20437;-76
2023/03/06 13:38:04;;;;;;;1.83;0.85;;;;;;;;;;5107749;28;20059;-77
2023/03/06 13:40:34;;;;;;;1.73;0.95;;;;;;;;;;5106984;28;20056;-75
2023/03/06 13:43:09;;;;;;;2.92;0.90;;;;;;;;;;5107778;28;20047;-79
2023/03/06 13:45:42;;;;;;;1.38;0.70;;;;;;;;;;5107794;28;20052;-78
2023/03/06 13:48:34;;;;;;;1.13;0.60;;;;;;;;;;5108142;28;20374;-78
2023/03/06 13:51:22;;;;;;;1.10;0.82;;;;;;;;;;5107191;28;20040;-78
2023/03/06 13:53:58;;;;;;;11.98;1.35;;;;;;;;;;5108193;28;20039;-80
2023/03/06 13:56:37;;;;;;;0.93;0.80;;;;;;;;;;5106664;28;20062;-78
2023/03/06 13:59:12;;;;;;;1.30;0.80;;;;;;;;;;5106632;28;20048;-77
2023/03/06 14:02:11;;;;;;;3.42;2.38;;;;;;;;;;5107180;28;20055;-77
2023/03/06 14:04:58;;;;;;;0.73;0.50;;;;;;;;;;5106832;28;20050;-76
2023/03/06 14:07:35;;;;;;;2.65;1.67;;;;;;;;;;5105696;28;20044;-76
2023/03/06 14:10:14;;;;;;;1.35;0.52;;;;;;;;;;5106795;28;20047;-76
2023/03/06 14:12:48;;;;;;;0.35;0.35;;;;;;;;;;5107319;28;20043;-75
2023/03/06 14:15:31;;;;;;;1.15;0.40;;;;;;;;;;5107077;28;20058;-76
2023/03/06 14:18:16;;;;;;;0.57;0.57;;;;;;;;;;5106520;28;20497;-77
2023/03/06 14:21:03;;;;;;;0.93;0.45;;;;;;;;;;5105929;28;20054;-77
2023/03/06 14:23:45;;;;;;;0.88;0.55;;;;;;;;;;5106540;28;20520;-75
2023/03/06 14:26:22;;;;;;;1.40;0.80;;;;;;;;;;5105872;28;20047;-74
2023/03/06 14:28:52;;;;;;;0.73;0.50;;;;;;;;;;5105992;28;20039;-76
2023/03/06 14:31:25;;;;;;;2.53;0.75;;;;;;;;;;5106225;28;20043;-77
2023/03/06 14:33:59;;;;;;;3.53;0.75;;;;;;;;;;5105798;28;20044;-75
2023/03/06 14:36:31;;;;;;;3.13;1.00;;;;;;;;;;5105943;28;20526;-77
2023/03/06 14:39:07;;;;;;;1.45;0.60;;;;;;;;;;5105914;28;20054;-76
2023/03/06 14:41:42;;;;;;;3.45;0.82;;;;;;;;;;5104903;28;20310;-76
2023/03/06 14:44:25;;;;;;;3.35;0.80;;;;;;;;;;5105138;28;20513;-77
2023/03/06 14:47:10;;;;;;;2.05;0.60;;;;;;;;;;5105961;28;20047;-77
2023/03/06 14:49:40;;;;;;;0.60;0.60;;;;;;;;;;5107052;28;20043;-73
2023/03/06 14:52:17;;;;;;;0.75;0.57;;;;;;;;;;5106267;28;20051;-75
2023/03/06 14:54:48;;;;;;;6.05;0.43;;;;;;;;;;5106496;28;20414;-77
2023/03/06 14:57:22;;;;;;;0.63;0.60;;;;;;;;;;5104927;28;20052;-76
2023/03/06 14:59:58;;;;;;;2.53;0.70;;;;;;;;;;5106747;28;20490;-75
2023/03/06 15:02:31;;;;;;;0.98;0.70;;;;;;;;;;5106498;28;20044;-76
2023/03/06 15:05:11;;;;;;;1.35;0.98;;;;;;;;;;5106654;28;20052;-79
2023/03/06 15:07:43;;;;;;;6.07;1.00;;;;;;;;;;5105546;28;20036;-77
2023/03/06 15:10:53;;;;;;;8.00;1.83;;;;;;;;;;5106726;28;20058;-79
2023/03/06 15:13:27;;;;;;;4.80;1.50;;;;;;;;;;5106207;28;20048;-77
2023/03/06 15:16:12;;;;;;;6.75;0.80;;;;;;;;;;5106242;28;20386;-78
2023/03/06 15:19:04;;;;;;;0.82;0.82;;;;;;;;;;5106068;28;20048;-81
2023/03/06 15:21:37;;;;;;;17.52;1.33;;;;;;;;;;5110303;28;20490;-83
2023/03/06 15:24:34;;;;;;;3.22;0.77;;;;;;;;;;5110786;28;20421;-81
2023/03/06 15:27:15;;;;;;;0.57;0.50;;;;;;;;;;5110854;28;20050;-81
2023/03/06 15:29:46;;;;;;;8.43;0.70;;;;;;;;;;5112372;28;20052;-83
2023/03/06 15:32:33;;;;;;;5.60;0.80;;;;;;;;;;5112816;28;20039;-80
2023/03/06 15:35:33;;;;;;;6.90;0.75;;;;;;;;;;5110150;28;20052;-78
2023/03/06 15:38:29;;;;;;;1.75;0.57;;;;;;;;;;5109875;28;20044;-76
2023/03/06 15:41:02;;;;;;;8.65;1.00;;;;;;;;;;5109794;28;20044;-79
2023/03/06 15:43:38;;;;;;;1.17;0.50;;;;;;;;;;5111880;28;20109;-77